Time;durP1;ratioP1;P1;durP2;ratioP2;P2;SDS_P1;SDS_P2;PMS_P1;PMS_P2;Temp;Humidity;BMP_temperature;BMP_pressure;BME280_temperature;BME280_humidity;BME280_pressure;Samples;Min_cycle;Max_cycle;Signal;HPM_P1;HPM_P2
2023/05/05 00:01:06;;;;;;;3.53;3.23;;;24.80;58.80;;;;;;4864787;29;20460;-86
2023/05/05 00:03:35;;;;;;;3.20;3.00;;;24.80;58.80;;;;;;4862879;29;20512;-86
2023/05/05 00:06:04;;;;;;;3.77;3.47;;;24.80;58.80;;;;;;4856815;29;20466;-84
2023/05/05 00:08:32;;;;;;;3.47;3.17;;;24.80;58.80;;;;;;4848817;29;20878;-84
2023/05/05 00:11:00;;;;;;;3.93;3.63;;;24.80;58.80;;;;;;4843994;29;20592;-84
2023/05/05 00:13:28;;;;;;;3.37;3.17;;;24.80;58.70;;;;;;4875842;29;20550;-84
2023/05/05 00:15:57;;;;;;;3.50;3.20;;;24.80;58.70;;;;;;4862536;29;20485;-84
2023/05/05 00:18:27;;;;;;;3.10;2.90;;;24.80;58.70;;;;;;4861921;29;20534;-85
2023/05/05 00:20:56;;;;;;;4.77;4.17;;;24.70;58.70;;;;;;4861994;29;20437;-84
2023/05/05 00:23:24;;;;;;;5.70;3.10;;;24.80;58.70;;;;;;4881014;29;20540;-86
2023/05/05 00:25:52;;;;;;;2.87;2.67;;;24.80;58.70;;;;;;4880627;29;21078;-84
2023/05/05 00:28:21;;;;;;;4.80;3.50;;;24.80;58.70;;;;;;4880144;29;20446;-84
2023/05/05 00:30:49;;;;;;;3.80;3.50;;;24.80;58.70;;;;;;4880632;29;20471;-85
2023/05/05 00:33:17;;;;;;;3.70;3.43;;;24.70;58.70;;;;;;4860495;29;20837;-87
2023/05/05 00:35:47;;;;;;;3.37;3.17;;;24.70;58.70;;;;;;4849982;29;20471;-84
2023/05/05 00:38:16;;;;;;;3.40;3.20;;;24.70;58.70;;;;;;4862311;29;20439;-84
2023/05/05 00:40:44;;;;;;;3.10;2.90;;;24.70;58.70;;;;;;4866440;29;20470;-85
2023/05/05 00:43:12;;;;;;;3.30;3.10;;;24.70;58.70;;;;;;4861610;29;20463;-85
2023/05/05 00:45:46;;;;;;;3.90;3.60;;;24.70;58.70;;;;;;4859680;29;20894;-84
2023/05/05 00:48:15;;;;;;;3.37;3.17;;;24.70;58.70;;;;;;4861421;29;20436;-84
2023/05/05 00:50:44;;;;;;;3.60;3.30;;;24.70;58.70;;;;;;4861906;29;20507;-85
2023/05/05 00:53:14;;;;;;;3.77;3.03;;;24.70;58.70;;;;;;4878791;29;21162;-85
2023/05/05 00:55:42;;;;;;;3.60;3.30;;;24.70;58.70;;;;;;4860683;29;20512;-85
2023/05/05 00:58:12;;;;;;;3.40;3.10;;;24.70;58.70;;;;;;4862150;29;20485;-84
2023/05/05 01:00:40;;;;;;;3.43;3.10;;;24.70;58.70;;;;;;4847765;29;20468;-84
2023/05/05 01:03:09;;;;;;;3.27;3.03;;;24.70;58.70;;;;;;4890271;29;20531;-87
2023/05/05 01:05:45;;;;;;;3.30;3.10;;;24.70;58.70;;;;;;4879071;29;20471;-84
2023/05/05 01:08:33;;;;;;;3.90;3.47;;;24.60;58.70;;;;;;4879986;29;20444;-84
2023/05/05 01:11:07;;;;;;;3.43;3.13;;;24.60;58.70;;;;;;4876012;29;20510;-84
2023/05/05 01:13:48;;;;;;;3.20;3.00;;;24.60;58.70;;;;;;4841725;29;20938;-84
2023/05/05 01:16:20;;;;;;;3.47;3.23;;;24.60;58.70;;;;;;4842587;29;20459;-84
2023/05/05 01:18:56;;;;;;;3.30;3.10;;;24.60;58.60;;;;;;4843099;29;20443;-85
2023/05/05 01:21:30;;;;;;;2.90;2.80;;;24.60;58.70;;;;;;4848491;29;20927;-85
2023/05/05 01:24:11;;;;;;;3.60;3.30;;;24.60;58.70;;;;;;4879516;29;20492;-84
2023/05/05 01:26:52;;;;;;;4.03;3.63;;;24.60;58.70;;;;;;4879395;29;20462;-86
2023/05/05 01:29:38;;;;;;;3.00;2.80;;;24.60;58.70;;;;;;4878280;29;20459;-85
2023/05/05 01:32:12;;;;;;;3.87;3.40;;;24.60;58.70;;;;;;4870749;29;20522;-84
2023/05/05 01:34:45;;;;;;;3.53;3.33;;;24.60;58.70;;;;;;4859241;29;20965;-84
2023/05/05 01:37:18;;;;;;;3.27;3.07;;;24.60;58.70;;;;;;4861171;29;20479;-85
2023/05/05 01:39:49;;;;;;;3.80;3.50;;;24.60;58.70;;;;;;4860704;29;20448;-84
2023/05/05 01:42:19;;;;;;;4.30;3.23;;;24.60;58.70;;;;;;4870322;29;20475;-85
2023/05/05 01:44:48;;;;;;;3.17;2.97;;;24.50;58.60;;;;;;4866178;29;20502;-84
2023/05/05 01:47:21;;;;;;;3.43;3.23;;;24.50;58.60;;;;;;4860684;29;20493;-84
2023/05/05 01:49:50;;;;;;;3.23;3.03;;;24.50;58.70;;;;;;4859306;29;20847;-86
2023/05/05 01:52:19;;;;;;;3.47;3.10;;;24.50;58.60;;;;;;4870153;29;20500;-85
2023/05/05 01:54:49;;;;;;;3.33;3.13;;;24.50;58.60;;;;;;4877457;29;20467;-84
2023/05/05 01:57:19;;;;;;;3.67;3.40;;;24.50;58.60;;;;;;4879254;29;20478;-84
2023/05/05 01:59:51;;;;;;;3.50;3.20;;;24.50;58.60;;;;;;4877396;29;21391;-85
2023/05/05 02:02:22;;;;;;;4.10;3.80;;;24.50;58.60;;;;;;4869693;29;20487;-84
2023/05/05 02:04:52;;;;;;;3.53;3.23;;;24.50;58.60;;;;;;4860485;29;20507;-84
2023/05/05 02:07:23;;;;;;;3.20;3.00;;;24.50;58.60;;;;;;4859394;29;20827;-84
2023/05/05 02:09:52;;;;;;;3.50;3.20;;;24.50;58.60;;;;;;4859687;29;20463;-85
2023/05/05 02:12:21;;;;;;;3.17;2.97;;;24.50;58.60;;;;;;4858854;29;20520;-84
2023/05/05 02:14:50;;;;;;;3.90;3.60;;;24.50;58.60;;;;;;4858838;29;20514;-84
2023/05/05 02:17:22;;;;;;;3.93;3.63;;;24.50;58.60;;;;;;4860296;29;20493;-84
2023/05/05 02:19:53;;;;;;;3.33;3.13;;;24.40;58.60;;;;;;4860394;29;20457;-84
2023/05/05 02:22:21;;;;;;;3.40;3.20;;;24.40;58.60;;;;;;4860476;29;20492;-84
2023/05/05 02:24:49;;;;;;;2.97;2.77;;;24.40;58.60;;;;;;4873628;29;20580;-84
2023/05/05 02:27:21;;;;;;;3.43;3.23;;;24.40;58.60;;;;;;4859724;29;20471;-85
2023/05/05 02:29:54;;;;;;;3.87;3.67;;;24.40;58.60;;;;;;4862529;29;21033;-85
2023/05/05 02:32:31;;;;;;;3.60;3.40;;;24.40;58.60;;;;;;4858283;29;20486;-88
2023/05/05 02:35:04;;;;;;;4.03;3.73;;;24.40;58.60;;;;;;4860078;29;20942;-85
2023/05/05 02:37:35;;;;;;;3.77;3.30;;;24.40;58.60;;;;;;4859825;29;20487;-85
2023/05/05 02:40:07;;;;;;;3.70;3.40;;;24.40;58.60;;;;;;4851306;29;20479;-85
2023/05/05 02:42:40;;;;;;;3.50;3.30;;;24.40;58.60;;;;;;4855398;29;20992;-84
2023/05/05 02:45:15;;;;;;;4.40;3.13;;;24.40;58.70;;;;;;4839731;29;20472;-85
2023/05/05 02:47:48;;;;;;;3.27;2.97;;;24.40;58.60;;;;;;4862019;29;21015;-84
2023/05/05 02:50:17;;;;;;;3.43;3.17;;;24.40;58.60;;;;;;4870058;29;20540;-84
2023/05/05 02:52:54;;;;;;;3.70;3.50;;;24.40;58.60;;;;;;4858460;29;20488;-85
2023/05/05 02:55:24;;;;;;;3.47;3.27;;;24.30;58.60;;;;;;4858299;29;20975;-85
2023/05/05 02:58:00;;;;;;;3.60;3.40;;;24.30;58.60;;;;;;4857849;29;20604;-87
2023/05/05 03:00:35;;;;;;;3.53;3.27;;;24.30;58.60;;;;;;4858298;29;20474;-85
2023/05/05 03:03:16;;;;;;;4.23;3.93;;;24.30;58.60;;;;;;4858116;29;20502;-85
2023/05/05 03:05:59;;;;;;;3.97;3.67;;;24.30;58.60;;;;;;4858233;29;20995;-86
2023/05/05 03:08:33;;;;;;;4.00;3.70;;;24.30;58.60;;;;;;4859775;29;20455;-87
2023/05/05 03:11:06;;;;;;;3.47;3.27;;;24.30;58.60;;;;;;4861564;29;20922;-84
2023/05/05 03:13:42;;;;;;;3.70;3.40;;;24.30;58.60;;;;;;4876296;29;20471;-84
2023/05/05 03:16:17;;;;;;;3.80;3.57;;;24.30;58.60;;;;;;4870279;29;20807;-85
2023/05/05 03:18:49;;;;;;;3.83;3.63;;;24.30;58.70;;;;;;4857142;29;20471;-85
2023/05/05 03:21:18;;;;;;;4.00;3.63;;;24.30;58.70;;;;;;4860626;29;20457;-85
2023/05/05 03:23:47;;;;;;;4.03;3.77;;;24.30;58.60;;;;;;4859332;29;20460;-84
2023/05/05 03:26:20;;;;;;;3.53;3.33;;;24.30;58.70;;;;;;4857486;29;20488;-85
2023/05/05 03:28:48;;;;;;;3.90;3.60;;;24.30;58.60;;;;;;4861421;29;20468;-85
2023/05/05 03:31:27;;;;;;;3.70;3.40;;;24.30;58.60;;;;;;4861532;29;21107;-85
2023/05/05 03:33:59;;;;;;;3.37;3.17;;;24.30;58.60;;;;;;4863606;29;20526;-84
2023/05/05 03:36:34;;;;;;;3.57;3.37;;;24.30;58.70;;;;;;4861598;29;20477;-84
2023/05/05 03:39:03;;;;;;;3.63;3.33;;;24.30;58.70;;;;;;4861966;29;20513;-85
2023/05/05 03:41:34;;;;;;;3.70;3.50;;;24.20;58.60;;;;;;4861678;29;20553;-85
2023/05/05 03:44:04;;;;;;;3.60;3.40;;;24.30;58.70;;;;;;4861111;29;20462;-85
2023/05/05 03:46:33;;;;;;;3.73;3.43;;;24.20;58.70;;;;;;4861578;29;20462;-84
2023/05/05 03:49:03;;;;;;;3.30;3.10;;;24.20;58.70;;;;;;4875232;29;20488;-84
2023/05/05 03:51:32;;;;;;;3.73;3.43;;;24.20;58.70;;;;;;4880973;29;20433;-85
2023/05/05 03:54:00;;;;;;;4.57;4.17;;;24.20;58.60;;;;;;4881595;29;20486;-85
2023/05/05 03:56:29;;;;;;;3.37;3.17;;;24.20;58.60;;;;;;4879889;29;20461;-85
2023/05/05 03:58:57;;;;;;;3.53;3.33;;;24.20;58.60;;;;;;4879515;29;20461;-84
2023/05/05 04:01:27;;;;;;;4.10;3.80;;;24.20;58.60;;;;;;4878496;29;20456;-84
2023/05/05 04:03:57;;;;;;;4.20;3.90;;;24.20;58.60;;;;;;4845040;29;20481;-84
2023/05/05 04:06:26;;;;;;;3.30;3.10;;;24.20;58.60;;;;;;4869695;29;20459;-84
2023/05/05 04:08:55;;;;;;;3.73;3.43;;;24.20;58.60;;;;;;4861147;29;20465;-84
2023/05/05 04:11:23;;;;;;;3.83;3.63;;;24.20;58.60;;;;;;4856012;29;20465;-86
2023/05/05 04:13:51;;;;;;;4.30;4.00;;;24.20;58.60;;;;;;4860595;29;21067;-85
2023/05/05 04:16:19;;;;;;;3.50;3.30;;;24.20;58.60;;;;;;4853318;29;20472;-84
2023/05/05 04:18:48;;;;;;;3.50;3.20;;;24.20;58.60;;;;;;4858597;29;20568;-84
2023/05/05 04:21:16;;;;;;;4.00;3.70;;;24.20;58.60;;;;;;4865862;29;20531;-84
2023/05/05 04:23:46;;;;;;;4.00;3.70;;;24.20;58.60;;;;;;4852496;29;21035;-84
2023/05/05 04:26:14;;;;;;;3.23;3.03;;;24.10;58.70;;;;;;4853031;29;20503;-84
2023/05/05 04:28:42;;;;;;;4.00;3.70;;;24.10;58.70;;;;;;4849141;29;21193;-86
2023/05/05 04:31:11;;;;;;;3.70;3.40;;;24.10;58.70;;;;;;4854863;29;20474;-84
2023/05/05 04:33:42;;;;;;;3.77;3.47;;;24.10;58.70;;;;;;4852810;29;20528;-84
2023/05/05 04:36:11;;;;;;;4.00;3.70;;;24.10;58.70;;;;;;4867955;29;20864;-87
2023/05/05 04:38:39;;;;;;;4.60;4.30;;;24.10;58.70;;;;;;4851374;29;20481;-87
2023/05/05 04:41:09;;;;;;;3.77;3.53;;;24.10;58.70;;;;;;4848206;29;20994;-84
2023/05/05 04:43:38;;;;;;;4.30;4.00;;;24.10;58.70;;;;;;4843133;29;20510;-84
2023/05/05 04:46:07;;;;;;;3.70;3.50;;;24.10;58.70;;;;;;4850007;29;20832;-84
2023/05/05 04:48:37;;;;;;;3.83;3.53;;;24.10;58.70;;;;;;4855775;29;20539;-84
2023/05/05 04:51:06;;;;;;;4.33;4.07;;;24.10;58.70;;;;;;4852573;29;20462;-85
2023/05/05 04:53:36;;;;;;;3.80;3.50;;;24.10;58.70;;;;;;4853474;29;20487;-86
2023/05/05 04:56:04;;;;;;;4.00;3.70;;;24.10;58.70;;;;;;4854325;29;20501;-84
2023/05/05 04:58:33;;;;;;;4.00;3.70;;;24.10;58.70;;;;;;4870615;29;21018;-85
2023/05/05 05:01:02;;;;;;;3.90;3.60;;;24.10;58.80;;;;;;4861618;29;20465;-84
2023/05/05 05:03:30;;;;;;;4.33;4.03;;;24.20;59.00;;;;;;4856865;29;20473;-84
2023/05/05 05:05:59;;;;;;;4.33;4.03;;;24.20;58.90;;;;;;4855146;29;20706;-85
2023/05/05 05:08:28;;;;;;;3.70;3.40;;;24.20;58.90;;;;;;4863857;29;20819;-84
2023/05/05 05:10:56;;;;;;;3.57;3.37;;;24.20;58.90;;;;;;4856632;29;20556;-84
2023/05/05 05:13:24;;;;;;;4.27;3.97;;;24.20;58.90;;;;;;4859523;29;21002;-84
2023/05/05 05:15:54;;;;;;;3.80;3.53;;;24.20;58.90;;;;;;4856959;29;20469;-85
2023/05/05 05:18:22;;;;;;;3.60;3.40;;;24.20;58.90;;;;;;4853784;29;20576;-85
2023/05/05 05:20:51;;;;;;;4.07;3.77;;;24.20;58.90;;;;;;4853640;29;20478;-87
2023/05/05 05:23:20;;;;;;;4.20;3.97;;;24.20;58.90;;;;;;4865985;29;20466;-85
2023/05/05 05:25:48;;;;;;;4.00;3.70;;;24.20;58.90;;;;;;4860380;29;20490;-85
2023/05/05 05:28:18;;;;;;;3.50;3.30;;;24.20;58.90;;;;;;4849305;29;21399;-85
2023/05/05 05:30:52;;;;;;;3.40;3.20;;;24.20;58.90;;;;;;4852679;29;20477;-85
2023/05/05 05:33:21;;;;;;;6.70;4.20;;;24.30;58.90;;;;;;4852026;29;20554;-87
2023/05/05 05:35:51;;;;;;;3.57;3.37;;;24.30;58.90;;;;;;4870750;29;20479;-84
2023/05/05 05:38:21;;;;;;;4.00;3.80;;;24.30;58.90;;;;;;4851846;29;20471;-85
2023/05/05 05:40:53;;;;;;;3.23;3.03;;;24.30;58.90;;;;;;4850574;29;20551;-85
2023/05/05 05:43:21;;;;;;;3.57;3.37;;;24.30;58.90;;;;;;4848900;29;20540;-85
2023/05/05 05:45:50;;;;;;;3.17;2.97;;;24.30;58.90;;;;;;4852092;29;20467;-85
2023/05/05 05:48:23;;;;;;;3.70;3.50;;;24.30;58.90;;;;;;4855077;29;20521;-83
2023/05/05 05:50:52;;;;;;;3.83;3.47;;;24.30;58.90;;;;;;4850963;29;20479;-84
2023/05/05 05:53:20;;;;;;;3.90;3.60;;;24.30;58.90;;;;;;4850620;29;20491;-84
2023/05/05 05:55:49;;;;;;;3.50;3.30;;;24.30;58.90;;;;;;4849701;29;20484;-85
2023/05/05 05:58:18;;;;;;;4.20;3.90;;;24.30;58.90;;;;;;4852942;29;20530;-84
2023/05/05 06:00:47;;;;;;;3.13;2.93;;;24.30;58.90;;;;;;4862445;29;20461;-85
2023/05/05 06:03:16;;;;;;;3.50;3.20;;;24.30;58.90;;;;;;4850867;29;20838;-85
2023/05/05 06:05:46;;;;;;;4.10;3.80;;;24.30;58.90;;;;;;4853288;29;20478;-86
2023/05/05 06:08:15;;;;;;;3.60;3.30;;;24.30;58.90;;;;;;4854543;29;21042;-84
2023/05/05 06:10:48;;;;;;;3.03;2.83;;;24.40;58.90;;;;;;4853981;29;20497;-84
2023/05/05 06:13:21;;;;;;;3.10;2.90;;;24.40;58.90;;;;;;4854943;29;20486;-89
2023/05/05 06:15:51;;;;;;;3.40;3.17;;;24.40;58.90;;;;;;4854760;29;20473;-85
2023/05/05 06:18:20;;;;;;;2.93;2.73;;;24.40;58.90;;;;;;4852645;29;20527;-84
2023/05/05 06:20:51;;;;;;;3.77;3.50;;;24.40;58.90;;;;;;4867650;29;20611;-83
2023/05/05 06:23:21;;;;;;;3.53;3.33;;;24.40;58.90;;;;;;4856869;29;20557;-83
2023/05/05 06:25:55;;;;;;;3.20;2.90;;;24.40;58.90;;;;;;4847221;29;20494;-83
2023/05/05 06:28:24;;;;;;;3.07;2.90;;;24.40;58.90;;;;;;4846695;29;20892;-84
2023/05/05 06:30:52;;;;;;;3.70;3.50;;;24.40;58.90;;;;;;4849189;29;20447;-86
2023/05/05 06:33:20;;;;;;;3.20;3.00;;;24.40;58.90;;;;;;4856200;29;20487;-84
2023/05/05 06:35:51;;;;;;;3.80;3.60;;;24.40;58.90;;;;;;4851864;29;20453;-84
2023/05/05 06:38:19;;;;;;;3.90;3.60;;;24.40;58.90;;;;;;4855667;29;20490;-84
2023/05/05 06:40:48;;;;;;;3.23;3.07;;;24.40;58.80;;;;;;4857809;29;21180;-87
2023/05/05 06:43:17;;;;;;;3.17;2.97;;;24.40;58.80;;;;;;4850923;29;20457;-84
2023/05/05 06:45:52;;;;;;;3.03;2.80;;;24.40;58.80;;;;;;4844168;29;20481;-85
2023/05/05 06:48:20;;;;;;;3.40;3.20;;;24.40;58.80;;;;;;4842218;29;20474;-83
2023/05/05 06:50:50;;;;;;;3.43;3.23;;;24.50;58.80;;;;;;4858376;29;20969;-85
2023/05/05 06:53:18;;;;;;;4.37;3.40;;;24.50;58.80;;;;;;4857143;29;20471;-83
2023/05/05 06:55:47;;;;;;;3.50;3.30;;;24.50;58.80;;;;;;4859125;29;20503;-85
2023/05/05 06:58:15;;;;;;;3.30;3.10;;;24.50;58.70;;;;;;4861616;29;20551;-84
2023/05/05 07:00:44;;;;;;;3.20;3.00;;;24.50;58.80;;;;;;4853149;29;20505;-85
2023/05/05 07:03:12;;;;;;;3.60;3.40;;;24.50;58.70;;;;;;4859232;29;20498;-86
2023/05/05 07:05:40;;;;;;;3.37;3.17;;;24.50;58.80;;;;;;4858917;29;20472;-83
2023/05/05 07:08:10;;;;;;;3.07;2.87;;;24.50;58.80;;;;;;4858724;29;20484;-87
2023/05/05 07:10:38;;;;;;;3.60;3.40;;;24.50;58.70;;;;;;4857827;29;20476;-81
2023/05/05 07:13:07;;;;;;;3.20;3.00;;;24.50;58.80;;;;;;4849424;29;20528;-82
2023/05/05 07:15:35;;;;;;;3.40;3.20;;;24.50;59.40;;;;;;4856520;29;20486;-80
2023/05/05 07:18:04;;;;;;;4.43;3.90;;;24.60;59.80;;;;;;4859939;29;20872;-79
2023/05/05 07:20:32;;;;;;;4.07;3.67;;;24.60;60.20;;;;;;4857696;29;20511;-82
2023/05/05 07:23:00;;;;;;;5.07;4.57;;;24.60;60.50;;;;;;4862470;29;21006;-79
2023/05/05 07:25:30;;;;;;;4.30;3.90;;;24.70;60.80;;;;;;4854631;29;20526;-79
2023/05/05 07:27:58;;;;;;;5.93;4.43;;;24.70;61.10;;;;;;4855387;29;20492;-82
2023/05/05 07:30:26;;;;;;;4.93;3.80;;;24.70;61.20;;;;;;4865752;29;20513;-82
2023/05/05 07:32:55;;;;;;;8.00;5.37;;;24.80;61.20;;;;;;4857938;29;20464;-83
2023/05/05 07:35:23;;;;;;;4.00;3.73;;;24.80;61.20;;;;;;4858835;29;20497;-82
2023/05/05 07:37:52;;;;;;;5.07;4.20;;;24.80;61.20;;;;;;4854770;29;20466;-83
2023/05/05 07:40:20;;;;;;;4.87;4.43;;;24.80;61.30;;;;;;4857960;29;20475;-80
2023/05/05 07:42:50;;;;;;;6.17;5.37;;;24.80;61.40;;;;;;4857526;29;20960;-82
2023/05/05 07:45:19;;;;;;;4.40;4.00;;;24.80;61.40;;;;;;4858810;29;20460;-80
2023/05/05 07:47:47;;;;;;;5.70;4.30;;;24.90;61.30;;;;;;4857226;29;20886;-83
2023/05/05 07:50:15;;;;;;;6.70;4.30;;;24.90;61.10;;;;;;4857718;29;20464;-83
2023/05/05 07:52:43;;;;;;;6.07;4.50;;;24.90;61.10;;;;;;4856195;29;20478;-81
2023/05/05 07:55:20;;;;;;;6.43;4.83;;;24.90;61.20;;;;;;4851187;29;20529;-80
2023/05/05 07:57:50;;;;;;;5.60;3.90;;;24.90;61.20;;;;;;4858665;29;20473;-82
2023/05/05 08:00:21;;;;;;;4.50;4.10;;;24.90;61.00;;;;;;4853200;29;20512;-83
2023/05/05 08:02:49;;;;;;;4.23;3.50;;;24.90;60.90;;;;;;4856954;29;20975;-82
2023/05/05 08:05:18;;;;;;;5.20;4.70;;;24.90;60.90;;;;;;4861710;29;20940;-84
2023/05/05 08:07:46;;;;;;;5.23;3.90;;;25.00;60.90;;;;;;4848004;29;20458;-83
2023/05/05 08:10:14;;;;;;;4.50;4.10;;;25.00;60.80;;;;;;4860022;29;20492;-82
2023/05/05 08:12:42;;;;;;;3.77;3.50;;;25.00;60.80;;;;;;4860258;29;20470;-85
2023/05/05 08:15:12;;;;;;;5.40;4.10;;;25.00;60.80;;;;;;4861931;29;20483;-80
2023/05/05 08:17:47;;;;;;;4.50;3.93;;;25.00;60.70;;;;;;4851798;29;20500;-80
2023/05/05 08:20:16;;;;;;;4.80;4.30;;;25.00;60.80;;;;;;4853250;29;21029;-82
2023/05/05 08:22:45;;;;;;;5.43;4.27;;;25.00;60.70;;;;;;4861462;29;20454;-81
2023/05/05 08:25:13;;;;;;;4.40;3.60;;;25.00;60.80;;;;;;4871478;29;20501;-81
2023/05/05 08:27:43;;;;;;;4.63;3.60;;;25.10;60.70;;;;;;4861006;29;20514;-82
2023/05/05 08:30:15;;;;;;;4.53;3.97;;;25.10;60.70;;;;;;4861029;29;20474;-82
2023/05/05 08:32:43;;;;;;;4.33;3.97;;;25.10;60.70;;;;;;4852265;29;20462;-82
2023/05/05 08:35:11;;;;;;;4.40;4.00;;;25.10;60.70;;;;;;4861503;29;20575;-82
2023/05/05 08:37:40;;;;;;;4.77;4.20;;;25.10;60.70;;;;;;4860987;29;20464;-83
2023/05/05 08:40:12;;;;;;;6.07;4.07;;;25.10;60.70;;;;;;4860655;29;20540;-82
2023/05/05 08:42:41;;;;;;;4.63;3.73;;;25.20;60.70;;;;;;4854567;29;20526;-81
2023/05/05 08:45:10;;;;;;;4.47;4.07;;;25.20;60.80;;;;;;4857884;29;20908;-84
2023/05/05 08:47:41;;;;;;;3.67;3.37;;;25.20;60.70;;;;;;4856326;29;20543;-81
2023/05/05 08:50:11;;;;;;;4.83;4.33;;;25.20;60.60;;;;;;4852491;29;20550;-83
2023/05/05 08:52:42;;;;;;;4.23;3.67;;;25.20;60.70;;;;;;4860696;29;20506;-81
2023/05/05 08:55:18;;;;;;;4.10;3.80;;;25.30;60.70;;;;;;4860776;29;20492;-81
2023/05/05 08:57:51;;;;;;;3.90;3.60;;;25.30;60.60;;;;;;4849722;29;20481;-81
2023/05/05 09:00:20;;;;;;;4.37;4.07;;;25.30;60.70;;;;;;4859042;29;20449;-83
2023/05/05 09:02:51;;;;;;;4.40;4.10;;;25.30;60.60;;;;;;4860742;29;20469;-81
2023/05/05 09:05:19;;;;;;;4.67;3.70;;;25.30;60.50;;;;;;4865768;29;20962;-81
2023/05/05 09:07:47;;;;;;;4.00;3.60;;;25.30;60.50;;;;;;4853957;29;20477;-81
2023/05/05 09:10:15;;;;;;;3.80;3.50;;;25.30;60.50;;;;;;4857157;29;20463;-83
2023/05/05 09:12:44;;;;;;;3.93;3.60;;;25.40;60.40;;;;;;4860811;29;20481;-82
2023/05/05 09:15:14;;;;;;;6.70;4.00;;;25.40;60.30;;;;;;4849130;29;20543;-83
2023/05/05 09:17:42;;;;;;;3.43;3.23;;;25.40;60.30;;;;;;4859209;29;20561;-83
2023/05/05 09:20:14;;;;;;;4.73;4.07;;;25.40;60.40;;;;;;4861050;29;20535;-82
2023/05/05 09:22:43;;;;;;;4.30;4.03;;;25.40;60.30;;;;;;4850162;29;20550;-83
2023/05/05 09:25:13;;;;;;;4.00;3.60;;;25.40;60.40;;;;;;4855846;29;20498;-82
2023/05/05 09:27:44;;;;;;;4.23;3.87;;;25.40;60.20;;;;;;4860761;29;21224;-84
2023/05/05 09:30:15;;;;;;;4.20;3.63;;;25.40;60.30;;;;;;4857813;29;20528;-82
2023/05/05 09:32:45;;;;;;;4.13;3.77;;;25.40;60.30;;;;;;4850986;29;20478;-82
2023/05/05 09:35:15;;;;;;;4.37;4.07;;;25.40;60.10;;;;;;4856377;29;21070;-84
2023/05/05 09:37:44;;;;;;;3.73;3.40;;;25.40;60.30;;;;;;4854527;29;20498;-83
2023/05/05 09:40:13;;;;;;;4.10;3.70;;;25.40;60.20;;;;;;4853073;29;20484;-80
2023/05/05 09:42:43;;;;;;;3.83;3.53;;;25.40;60.10;;;;;;4865415;29;20582;-85
2023/05/05 09:45:26;;;;;;;3.97;3.60;;;25.40;60.00;;;;;;4861794;29;20454;-81
2023/05/05 09:47:54;;;;;;;4.50;3.80;;;25.40;60.10;;;;;;4856154;29;20570;-81
2023/05/05 09:50:31;;;;;;;4.07;3.77;;;25.40;60.00;;;;;;4868966;29;20493;-81
2023/05/05 09:53:03;;;;;;;4.30;4.00;;;25.50;60.00;;;;;;4848555;29;20893;-82
2023/05/05 09:55:31;;;;;;;3.90;3.33;;;25.50;60.00;;;;;;4859160;29;20478;-81
2023/05/05 09:58:17;;;;;;;3.57;3.37;;;25.50;60.10;;;;;;4849233;29;20473;-86
2023/05/05 10:00:46;;;;;;;3.67;3.47;;;25.50;60.10;;;;;;4857436;29;20518;-89
2023/05/05 10:03:14;;;;;;;4.13;3.53;;;25.50;59.80;;;;;;4859266;29;20832;-86
2023/05/05 10:05:52;;;;;;;4.33;3.80;;;25.50;59.80;;;;;;4859228;29;20910;-86
2023/05/05 10:08:22;;;;;;;3.60;3.30;;;25.50;59.90;;;;;;4857839;29;20463;-85
2023/05/05 10:10:52;;;;;;;3.20;3.00;;;25.60;59.80;;;;;;4855843;29;20493;-86
2023/05/05 10:13:21;;;;;;;4.37;3.97;;;25.60;59.70;;;;;;4852119;29;20933;-87
2023/05/05 10:15:52;;;;;;;4.80;3.60;;;25.60;59.70;;;;;;4863689;29;21017;-86
2023/05/05 10:18:21;;;;;;;3.80;3.50;;;25.60;59.70;;;;;;4853476;29;20553;-86
2023/05/05 10:20:58;;;;;;;3.80;3.47;;;25.60;59.60;;;;;;4863293;29;20482;-88
2023/05/05 10:23:34;;;;;;;3.70;3.40;;;25.60;59.80;;;;;;4862667;29;20480;-85
2023/05/05 10:26:05;;;;;;;3.90;3.70;;;25.60;59.80;;;;;;4870944;29;20497;-86
2023/05/05 10:28:34;;;;;;;4.23;3.83;;;25.60;59.80;;;;;;4862923;29;20467;-86
2023/05/05 10:31:06;;;;;;;3.87;3.57;;;25.60;59.70;;;;;;4859343;29;20495;-85
2023/05/05 10:33:55;;;;;;;3.47;3.20;;;25.60;59.70;;;;;;4861296;29;20917;-86
2023/05/05 10:36:26;;;;;;;4.17;3.87;;;25.60;59.90;;;;;;4858394;29;20942;-90
2023/05/05 10:38:56;;;;;;;3.67;3.47;;;25.60;59.90;;;;;;4859913;29;20543;-87
2023/05/05 10:41:25;;;;;;;3.77;3.50;;;25.60;59.90;;;;;;4855998;29;20507;-87
2023/05/05 10:43:56;;;;;;;3.77;3.47;;;25.60;59.90;;;;;;4859499;29;20517;-86
2023/05/05 10:46:26;;;;;;;3.37;3.00;;;25.60;60.10;;;;;;4858878;29;20506;-86
2023/05/05 10:48:59;;;;;;;3.60;3.33;;;25.60;60.00;;;;;;4857276;29;20521;-86
2023/05/05 10:51:39;;;;;;;3.70;3.40;;;25.60;59.90;;;;;;4864486;29;20506;-85
2023/05/05 10:54:13;;;;;;;3.37;3.03;;;25.60;59.80;;;;;;4861224;29;20459;-89
2023/05/05 10:56:43;;;;;;;4.13;3.93;;;25.60;59.90;;;;;;4867559;29;20494;-85
2023/05/05 10:59:39;;;;;;;3.77;3.47;;;25.60;59.90;;;;;;4851788;29;20706;-85
2023/05/05 11:02:22;;;;;;;3.00;2.80;;;25.60;59.80;;;;;;4854378;29;20999;-85
2023/05/05 11:05:07;;;;;;;2.73;2.53;;;25.60;59.90;;;;;;4859831;29;20474;-86
2023/05/05 11:07:37;;;;;;;3.70;3.40;;;25.60;59.80;;;;;;4856470;29;20466;-82
2023/05/05 11:10:07;;;;;;;3.30;3.00;;;25.60;59.80;;;;;;4850250;29;20481;-85
2023/05/05 11:13:09;;;;;;;3.70;3.40;;;25.60;60.10;;;;;;4854047;29;20966;-81
2023/05/05 11:15:38;;;;;;;5.50;3.60;;;25.60;60.10;;;;;;4848716;29;20574;-82
2023/05/05 11:18:06;;;;;;;4.10;3.80;;;25.60;60.70;;;;;;4855515;29;20526;-81
2023/05/05 11:21:14;;;;;;;3.17;2.97;;;25.70;60.50;;;;;;4856024;29;20475;-81
2023/05/05 11:23:49;;;;;;;3.80;3.23;;;25.70;60.40;;;;;;4853905;29;20467;-80
2023/05/05 11:26:38;;;;;;;4.90;3.53;;;25.70;60.60;;;;;;4855941;29;20523;-83
2023/05/05 11:29:07;;;;;;;5.07;3.83;;;25.70;60.50;;;;;;4851791;29;20481;-82
2023/05/05 11:31:35;;;;;;;3.00;2.80;;;25.80;60.40;;;;;;4851999;29;20548;-82
2023/05/05 11:34:26;;;;;;;3.80;3.50;;;25.80;60.50;;;;;;4855653;29;20483;-80
2023/05/05 11:37:01;;;;;;;3.33;3.13;;;25.80;60.40;;;;;;4853741;29;20484;-81
2023/05/05 11:39:40;;;;;;;3.03;2.83;;;25.80;60.50;;;;;;4855782;29;20455;-81
2023/05/05 11:42:24;;;;;;;4.47;3.43;;;25.90;60.50;;;;;;4856617;29;20876;-81
2023/05/05 11:44:54;;;;;;;3.90;3.43;;;25.90;60.30;;;;;;4856005;29;21381;-81
2023/05/05 11:47:32;;;;;;;4.53;3.33;;;25.90;60.40;;;;;;4856279;29;20563;-82
2023/05/05 11:50:19;;;;;;;3.80;3.50;;;26.00;60.30;;;;;;4860181;29;20448;-81
2023/05/05 11:52:48;;;;;;;3.30;3.10;;;26.00;60.20;;;;;;4858075;29;21322;-80
2023/05/05 11:55:23;;;;;;;3.87;3.57;;;26.00;60.20;;;;;;4857674;29;20511;-82
2023/05/05 11:57:52;;;;;;;3.50;2.60;;;26.10;60.00;;;;;;4859175;29;20479;-83
2023/05/05 12:00:31;;;;;;;3.30;3.00;;;26.20;59.90;;;;;;4856176;29;20559;-84
2023/05/05 12:02:59;;;;;;;4.40;3.20;;;26.20;59.90;;;;;;4861640;29;20555;-81
2023/05/05 12:05:27;;;;;;;3.60;3.07;;;26.30;59.70;;;;;;4860094;29;20479;-81
2023/05/05 12:07:59;;;;;;;3.43;3.23;;;26.30;59.70;;;;;;4852548;29;20939;-81
2023/05/05 12:10:29;;;;;;;3.20;2.90;;;26.30;59.70;;;;;;4856747;29;20954;-81
2023/05/05 12:12:57;;;;;;;3.10;2.90;;;26.20;59.70;;;;;;4858835;29;20502;-83
2023/05/05 12:15:32;;;;;;;3.03;2.80;;;26.20;59.80;;;;;;4852968;29;20483;-80
2023/05/05 12:18:00;;;;;;;3.50;3.20;;;26.30;59.90;;;;;;4860726;29;20480;-81
2023/05/05 12:20:35;;;;;;;4.37;3.03;;;26.20;59.80;;;;;;4869948;29;20462;-81
2023/05/05 12:23:04;;;;;;;3.10;2.90;;;26.20;60.00;;;;;;4861171;29;20958;-81
2023/05/05 12:25:38;;;;;;;4.00;3.40;;;26.20;59.90;;;;;;4859120;29;20583;-81
2023/05/05 12:28:08;;;;;;;3.40;3.17;;;26.30;59.80;;;;;;4857425;29;20497;-82
2023/05/05 12:30:36;;;;;;;2.77;2.57;;;26.30;59.80;;;;;;4858676;29;20957;-80
2023/05/05 12:33:06;;;;;;;3.47;3.17;;;26.30;59.70;;;;;;4860360;29;20482;-80
2023/05/05 12:35:34;;;;;;;4.43;2.63;;;26.40;59.70;;;;;;4857744;29;20453;-81
2023/05/05 12:38:03;;;;;;;4.63;3.80;;;26.40;59.50;;;;;;4867389;29;20485;-82
2023/05/05 12:40:46;;;;;;;3.03;2.83;;;26.50;59.40;;;;;;4860439;29;20980;-79
2023/05/05 12:43:29;;;;;;;3.43;3.17;;;26.50;59.40;;;;;;4860805;29;20507;-82
2023/05/05 12:46:05;;;;;;;3.60;3.30;;;26.60;59.30;;;;;;4858890;29;20563;-80
2023/05/05 12:48:36;;;;;;;3.07;2.80;;;26.50;59.30;;;;;;4863023;29;20448;-79
2023/05/05 12:51:18;;;;;;;3.40;2.67;;;26.50;59.30;;;;;;4846888;29;20454;-78
2023/05/05 12:53:48;;;;;;;4.03;2.90;;;26.50;59.40;;;;;;4862083;29;20953;-79
2023/05/05 12:56:34;;;;;;;4.90;3.50;;;26.40;59.50;;;;;;4853542;29;20497;-80
2023/05/05 12:59:04;;;;;;;3.83;2.90;;;26.40;59.50;;;;;;4857349;29;20511;-80
2023/05/05 13:01:32;;;;;;;2.93;2.73;;;26.40;59.50;;;;;;4855322;29;20969;-80
2023/05/05 13:04:09;;;;;;;2.80;2.60;;;26.40;59.70;;;;;;4862911;29;20471;-79
2023/05/05 13:06:38;;;;;;;2.90;2.70;;;26.40;59.60;;;;;;4853003;29;20473;-80
2023/05/05 13:09:07;;;;;;;3.57;2.73;;;26.50;59.50;;;;;;4860219;29;20459;-80